createdAt,value
2018-09-17T00:00:55.558Z,99.99
2018-09-17T00:01:55.512Z,99.99
2018-09-17T00:02:55.484Z,99.99
2018-09-17T00:03:55.461Z,99.99
2018-09-17T00:04:55.407Z,99.99
2018-09-17T00:05:55.371Z,99.99
2018-09-17T00:06:55.344Z,99.99
2018-09-17T00:07:55.305Z,99.99
2018-09-17T00:08:55.272Z,99.99
2018-09-17T00:09:55.282Z,99.99
2018-09-17T00:10:55.284Z,99.99
2018-09-17T00:11:55.166Z,99.99
2018-09-17T00:12:55.133Z,99.99
2018-09-17T00:13:55.105Z,99.99
2018-09-17T00:14:55.062Z,99.99
2018-09-17T00:15:55.307Z,99.99
2018-09-17T00:16:54.997Z,99.99
2018-09-17T00:17:54.962Z,99.99
2018-09-17T00:18:54.918Z,99.99
2018-09-17T00:19:54.896Z,99.99
2018-09-17T00:20:54.852Z,99.99
2018-09-17T00:21:54.820Z,99.99
2018-09-17T00:22:54.781Z,99.99
2018-09-17T00:23:54.746Z,99.99
2018-09-17T00:24:54.716Z,99.99
2018-09-17T00:25:54.679Z,99.99
2018-09-17T00:26:54.641Z,99.99
2018-09-17T00:27:54.611Z,99.99
2018-09-17T00:28:54.575Z,99.99
2018-09-17T00:29:54.545Z,99.99
2018-09-17T00:30:54.507Z,99.99
2018-09-17T00:31:54.481Z,99.99
2018-09-17T00:32:54.442Z,99.99
2018-09-17T00:33:54.417Z,99.99
2018-09-17T00:34:54.373Z,99.99
2018-09-17T00:35:54.386Z,99.99
2018-09-17T00:36:54.300Z,99.99
2018-09-17T00:37:54.266Z,99.99
2018-09-17T00:38:54.233Z,99.99
2018-09-17T00:39:54.195Z,99.99
2018-09-17T00:40:54.159Z,99.99
2018-09-17T00:41:54.127Z,99.99
2018-09-17T00:42:54.089Z,99.99
2018-09-17T00:43:54.059Z,99.99
2018-09-17T00:44:54.021Z,99.99
2018-09-17T00:45:53.987Z,99.99
2018-09-17T00:46:53.955Z,99.99
2018-09-17T00:47:53.919Z,99.99
2018-09-17T00:48:53.879Z,99.99
2018-09-17T00:49:53.849Z,99.99
2018-09-17T00:50:53.831Z,99.99
2018-09-17T00:51:53.781Z,99.99
2018-09-17T00:52:53.748Z,99.99
2018-09-17T00:53:53.709Z,99.99
2018-09-17T00:54:53.671Z,99.99
2018-09-17T00:55:53.642Z,99.99
2018-09-17T00:56:53.615Z,99.99
2018-09-17T00:57:53.655Z,99.99
2018-09-17T00:58:53.540Z,99.99
2018-09-17T00:59:53.496Z,99.99
2018-09-17T01:00:53.489Z,99.99
2018-09-17T01:01:53.451Z,99.99
2018-09-17T01:02:53.399Z,99.99
2018-09-17T01:03:53.357Z,99.99
2018-09-17T01:04:53.329Z,99.99
2018-09-17T01:05:53.302Z,99.99
2018-09-17T01:06:53.252Z,99.99
2018-09-17T01:07:53.220Z,99.99
2018-09-17T01:08:53.180Z,99.99
2018-09-17T01:09:53.145Z,99.99
2018-09-17T01:10:53.118Z,99.99
2018-09-17T01:11:53.078Z,99.99
2018-09-17T01:12:53.046Z,99.99
2018-09-17T01:13:53.026Z,99.99
2018-09-17T01:14:52.975Z,99.99
2018-09-17T01:15:52.945Z,99.99
2018-09-17T01:16:52.906Z,99.99
2018-09-17T01:17:52.869Z,99.99
2018-09-17T01:18:52.833Z,99.99
2018-09-17T01:19:52.799Z,99.99
2018-09-17T01:20:52.762Z,99.99
2018-09-17T01:21:52.735Z,99.99
2018-09-17T01:22:52.695Z,99.99
2018-09-17T01:23:52.663Z,99.99
2018-09-17T01:24:52.654Z,99.99
2018-09-17T01:25:52.591Z,99.99
2018-09-17T01:26:52.556Z,99.99
2018-09-17T01:27:52.525Z,99.99
2018-09-17T01:28:52.482Z,99.99
2018-09-17T01:29:52.448Z,99.99
2018-09-17T01:30:52.412Z,99.99
2018-09-17T01:31:52.376Z,99.99
2018-09-17T01:32:52.339Z,99.99
2018-09-17T01:33:52.306Z,99.99
2018-09-17T01:34:52.283Z,99.99
2018-09-17T01:35:52.242Z,99.99
2018-09-17T01:36:52.205Z,99.99
2018-09-17T01:37:52.169Z,99.99
2018-09-17T01:38:52.201Z,99.99
2018-09-17T01:39:52.104Z,99.99
2018-09-17T01:40:52.063Z,99.99
2018-09-17T01:41:52.027Z,99.99
2018-09-17T01:42:51.999Z,99.99
2018-09-17T01:43:51.973Z,99.99
2018-09-17T01:44:51.923Z,99.99
2018-09-17T01:45:51.895Z,99.99
2018-09-17T01:46:51.850Z,99.99
2018-09-17T01:47:51.836Z,99.99
2018-09-17T01:48:51.778Z,99.99
2018-09-17T01:49:51.745Z,99.99
2018-09-17T01:50:51.709Z,99.99
2018-09-17T01:51:51.673Z,99.99
2018-09-17T01:52:51.637Z,99.99
2018-09-17T01:53:51.604Z,99.99
2018-09-17T01:54:51.577Z,99.99
2018-09-17T01:55:51.555Z,99.99
2018-09-17T01:56:51.514Z,99.99
2018-09-17T01:57:51.465Z,99.99
2018-09-17T01:58:51.436Z,99.99
2018-09-17T01:59:51.390Z,99.99
2018-09-17T02:00:51.359Z,99.99
2018-09-17T02:01:51.330Z,99.99
2018-09-17T02:02:51.303Z,99.99
2018-09-17T02:03:52.055Z,99.99
2018-09-17T02:04:51.216Z,99.99
2018-09-17T02:05:51.181Z,99.99
2018-09-17T02:06:51.155Z,99.99
2018-09-17T02:07:51.109Z,99.99
2018-09-17T02:08:51.098Z,99.99
2018-09-17T02:09:51.091Z,99.99
2018-09-17T02:10:51.005Z,99.99
2018-09-17T02:11:50.981Z,99.99
2018-09-17T02:12:50.934Z,99.99
2018-09-17T02:13:50.908Z,99.99
2018-09-17T02:14:50.867Z,99.99
2018-09-17T02:15:50.848Z,99.99
2018-09-17T02:16:50.842Z,99.99
2018-09-17T02:17:50.753Z,99.99
2018-09-17T02:18:50.721Z,99.99
2018-09-17T02:19:51.295Z,99.99
2018-09-17T02:20:50.690Z,99.99
2018-09-17T02:21:50.657Z,99.99
2018-09-17T02:22:50.611Z,99.99
2018-09-17T02:23:50.542Z,99.99
2018-09-17T02:24:50.517Z,99.99
2018-09-17T02:25:50.470Z,99.99
2018-09-17T02:26:50.450Z,99.99
2018-09-17T02:27:50.416Z,99.99
2018-09-17T02:28:50.375Z,99.99
2018-09-17T02:29:50.328Z,99.99
2018-09-17T02:30:50.296Z,99.99
2018-09-17T02:31:50.260Z,99.99
2018-09-17T02:32:50.224Z,99.99
2018-09-17T02:33:50.192Z,99.99
2018-09-17T02:34:50.189Z,99.99
2018-09-17T02:35:50.120Z,99.99
2018-09-17T02:36:50.107Z,99.99
2018-09-17T02:37:50.042Z,99.99
2018-09-17T02:38:50.013Z,99.99
2018-09-17T02:39:49.971Z,99.99
2018-09-17T02:40:50.014Z,99.99
2018-09-17T02:41:49.901Z,99.99
2018-09-17T02:42:50.059Z,99.99
2018-09-17T02:43:49.839Z,99.99
2018-09-17T02:44:49.805Z,99.99
2018-09-17T02:45:49.755Z,99.99
2018-09-17T02:46:49.746Z,99.99
2018-09-17T02:47:50.467Z,99.99
2018-09-17T02:48:49.648Z,99.99
2018-09-17T02:49:49.653Z,99.99
2018-09-17T02:50:49.611Z,99.99
2018-09-17T02:51:49.545Z,99.99
2018-09-17T02:52:49.519Z,99.99
2018-09-17T02:53:49.478Z,99.99
2018-09-17T02:54:49.438Z,99.99
2018-09-17T02:55:49.427Z,99.99
2018-09-17T02:56:49.405Z,99.99
2018-09-17T02:57:49.351Z,99.99
2018-09-17T02:58:49.305Z,99.99
2018-09-17T02:59:49.255Z,99.99
2018-09-17T03:00:49.268Z,99.99
2018-09-17T03:01:49.192Z,99.99
2018-09-17T03:02:49.149Z,99.99
2018-09-17T03:03:49.135Z,99.99
2018-09-17T03:04:49.090Z,99.99
2018-09-17T03:05:49.044Z,99.99
2018-09-17T03:06:49.010Z,99.99
2018-09-17T03:07:48.965Z,99.99
2018-09-17T03:08:48.946Z,99.99
2018-09-17T03:09:48.898Z,99.99
2018-09-17T03:10:48.869Z,99.99
2018-09-17T03:11:48.831Z,99.99
2018-09-17T03:12:48.822Z,99.99
2018-09-17T03:13:48.757Z,99.99
2018-09-17T03:14:48.724Z,99.99
2018-09-17T03:15:49.140Z,99.99
2018-09-17T03:16:48.658Z,99.99
2018-09-17T03:17:48.619Z,99.99
2018-09-17T03:18:48.580Z,99.99
2018-09-17T03:19:48.552Z,99.99
2018-09-17T03:20:48.505Z,99.99
2018-09-17T03:21:48.473Z,99.99
2018-09-17T03:22:48.437Z,99.99
2018-09-17T03:23:48.397Z,99.99
2018-09-17T03:24:48.369Z,99.99
2018-09-17T03:25:48.335Z,99.99
2018-09-17T03:26:48.324Z,99.99
2018-09-17T03:27:48.268Z,99.99
2018-09-17T03:28:48.221Z,99.99
2018-09-17T03:29:48.188Z,99.99
2018-09-17T03:30:48.157Z,99.99
2018-09-17T03:31:48.121Z,99.99
2018-09-17T03:32:48.077Z,99.99
2018-09-17T03:33:48.041Z,99.99
2018-09-17T03:34:48.014Z,99.99
2018-09-17T03:35:47.971Z,99.99
2018-09-17T03:36:47.934Z,99.99
2018-09-17T03:37:47.899Z,99.99
2018-09-17T03:38:48.130Z,99.99
2018-09-17T03:39:47.833Z,99.99
2018-09-17T03:40:47.798Z,99.99
2018-09-17T03:41:47.762Z,99.99
2018-09-17T03:42:47.720Z,99.99
2018-09-17T03:43:47.680Z,99.99
2018-09-17T03:44:47.659Z,99.99
2018-09-17T03:45:47.617Z,99.99
2018-09-17T03:46:47.712Z,99.99
2018-09-17T03:47:47.572Z,99.99
2018-09-17T03:48:47.505Z,99.99
2018-09-17T03:49:47.471Z,99.99
2018-09-17T03:50:47.434Z,99.99
2018-09-17T03:51:47.396Z,99.99
2018-09-17T03:52:47.362Z,99.99
2018-09-17T03:53:47.326Z,99.99
2018-09-17T03:54:47.286Z,99.99
2018-09-17T03:55:47.253Z,99.99
2018-09-17T03:56:47.240Z,99.99
2018-09-17T03:57:47.208Z,99.99
2018-09-17T03:58:47.151Z,99.99
2018-09-17T03:59:47.115Z,99.99
2018-09-17T04:00:47.109Z,99.99
2018-09-17T04:01:47.078Z,99.99
2018-09-17T04:02:47.039Z,99.99
2018-09-17T04:03:46.964Z,99.99
2018-09-17T04:04:46.953Z,99.99
2018-09-17T04:05:46.919Z,99.99
2018-09-17T04:06:46.867Z,99.99
2018-09-17T04:07:46.825Z,99.99
2018-09-17T04:08:46.786Z,99.99
2018-09-17T04:09:46.755Z,99.99
2018-09-17T04:10:46.724Z,99.99
2018-09-17T04:11:46.678Z,99.99
2018-09-17T04:12:46.650Z,99.99
2018-09-17T04:13:46.607Z,99.99
2018-09-17T04:14:46.606Z,99.99
2018-09-17T04:15:46.575Z,99.99
2018-09-17T04:16:46.514Z,99.99
2018-09-17T04:17:46.474Z,99.99
2018-09-17T04:18:46.437Z,99.99
2018-09-17T04:19:46.392Z,99.99
2018-09-17T04:20:46.361Z,99.99
2018-09-17T04:21:46.332Z,99.99
2018-09-17T04:22:46.300Z,99.99
2018-09-17T04:23:46.250Z,99.99
2018-09-17T04:24:46.213Z,99.99
2018-09-17T04:25:46.177Z,99.99
2018-09-17T04:26:46.141Z,99.99
2018-09-17T04:27:46.105Z,99.99
2018-09-17T04:28:46.095Z,99.99
2018-09-17T04:29:46.038Z,99.99
2018-09-17T04:30:46.029Z,99.99
2018-09-17T04:31:45.965Z,99.99
2018-09-17T04:32:45.931Z,99.99
2018-09-17T04:33:45.892Z,99.99
2018-09-17T04:34:45.864Z,99.99
2018-09-17T04:35:45.819Z,99.99
2018-09-17T04:36:45.786Z,99.99
2018-09-17T04:37:45.750Z,99.99
2018-09-17T04:38:45.720Z,99.99
2018-09-17T04:39:45.700Z,99.99
2018-09-17T04:40:45.662Z,99.99
2018-09-17T04:41:45.604Z,99.99
2018-09-17T04:42:45.583Z,99.99
2018-09-17T04:43:45.529Z,99.99
2018-09-17T04:44:45.496Z,99.99
2018-09-17T04:45:45.460Z,99.99
2018-09-17T04:46:45.422Z,99.99
2018-09-17T04:47:45.384Z,99.99
2018-09-17T04:48:45.368Z,99.99
2018-09-17T04:49:45.330Z,99.99
2018-09-17T04:50:45.289Z,99.99
2018-09-17T04:51:45.245Z,99.99
2018-09-17T04:52:45.208Z,99.99
2018-09-17T04:53:45.190Z,99.99
2018-09-17T04:54:45.143Z,99.99
2018-09-17T04:55:45.100Z,99.99
2018-09-17T04:56:45.059Z,99.99
2018-09-17T04:57:45.028Z,99.99
2018-09-17T04:58:45.049Z,99.99
2018-09-17T04:59:44.957Z,99.99
2018-09-17T05:00:44.919Z,99.99
2018-09-17T05:01:44.888Z,99.99
2018-09-17T05:02:44.850Z,99.99
2018-09-17T05:03:44.809Z,99.99
2018-09-17T05:04:44.774Z,99.99
2018-09-17T05:05:44.764Z,99.99
2018-09-17T05:06:44.704Z,99.99
2018-09-17T05:07:44.662Z,99.99
2018-09-17T05:08:44.891Z,99.99
2018-09-17T05:09:44.591Z,99.99
2018-09-17T05:10:44.603Z,99.99
2018-09-17T05:11:44.532Z,99.99
2018-09-17T05:12:44.479Z,99.99
2018-09-17T05:13:44.449Z,99.99
2018-09-17T05:14:44.416Z,99.99
2018-09-17T05:15:44.373Z,99.99
2018-09-17T05:16:44.341Z,99.99
2018-09-17T05:17:44.307Z,99.99
2018-09-17T05:18:44.267Z,99.99
2018-09-17T05:19:44.232Z,99.99
2018-09-17T05:20:44.203Z,99.99
2018-09-17T05:21:44.171Z,99.99
2018-09-17T05:22:44.121Z,99.99
2018-09-17T05:23:44.136Z,99.99
2018-09-17T05:24:44.152Z,99.99
2018-09-17T05:25:44.018Z,99.99
2018-09-17T05:26:43.992Z,99.99
2018-09-17T05:27:43.944Z,99.99
2018-09-17T05:28:43.906Z,99.99
2018-09-17T05:29:43.884Z,99.99
2018-09-17T05:30:43.840Z,99.99
2018-09-17T05:31:43.816Z,99.99
2018-09-17T05:32:43.766Z,99.99
2018-09-17T05:33:43.726Z,99.99
2018-09-17T05:34:43.724Z,99.99
2018-09-17T05:35:43.669Z,99.99
2018-09-17T05:36:43.622Z,99.99
2018-09-17T05:37:43.603Z,99.99
2018-09-17T05:38:43.546Z,99.99
2018-09-17T05:39:43.512Z,99.99
2018-09-17T05:40:43.536Z,99.99
2018-09-17T05:41:43.482Z,99.99
2018-09-17T05:42:43.414Z,99.99
2018-09-17T05:43:43.374Z,99.99
2018-09-17T05:44:43.338Z,99.99
2018-09-17T05:45:43.306Z,99.99
2018-09-17T05:46:43.264Z,99.99
2018-09-17T05:47:43.229Z,99.99
2018-09-17T05:48:43.205Z,99.99
2018-09-17T05:49:43.162Z,99.99
2018-09-17T05:50:43.123Z,99.99
2018-09-17T05:51:43.090Z,99.99
2018-09-17T05:52:43.074Z,99.99
2018-09-17T05:53:43.051Z,99.99
2018-09-17T05:54:43.033Z,99.99
2018-09-17T05:55:42.952Z,99.99
2018-09-17T05:56:42.908Z,99.99
2018-09-17T05:57:42.883Z,99.99
2018-09-17T05:58:42.845Z,99.99
2018-09-17T05:59:42.955Z,99.99
2018-09-17T06:00:42.766Z,99.99
2018-09-17T06:01:42.736Z,99.99
2018-09-17T06:02:42.699Z,99.99
2018-09-17T06:03:42.664Z,99.99
2018-09-17T06:04:42.633Z,99.99
2018-09-17T06:05:42.654Z,99.99
2018-09-17T06:06:42.580Z,99.99
2018-09-17T06:07:42.530Z,99.99
2018-09-17T06:08:42.487Z,99.99
2018-09-17T06:09:42.455Z,99.99
2018-09-17T06:10:42.422Z,99.99
2018-09-17T06:11:42.422Z,99.99
2018-09-17T06:12:42.356Z,99.99
2018-09-17T06:13:42.311Z,99.99
2018-09-17T06:14:42.313Z,99.99
2018-09-17T06:15:42.239Z,99.99
2018-09-17T06:16:42.209Z,99.99
2018-09-17T06:17:42.168Z,99.99
2018-09-17T06:18:42.138Z,99.99
2018-09-17T06:19:42.102Z,99.99
2018-09-17T06:20:42.069Z,99.99
2018-09-17T06:21:42.038Z,99.99
2018-09-17T06:22:42.032Z,99.99
2018-09-17T06:23:41.968Z,99.99
2018-09-17T06:24:41.927Z,99.99
2018-09-17T06:25:41.923Z,99.99
2018-09-17T06:26:41.925Z,99.99
2018-09-17T06:27:41.824Z,99.99
2018-09-17T06:28:41.854Z,99.99
2018-09-17T06:29:41.784Z,99.99
2018-09-17T06:30:41.722Z,99.99
2018-09-17T06:31:41.689Z,99.99
2018-09-17T06:32:41.663Z,99.99
2018-09-17T06:33:41.620Z,99.99
2018-09-17T06:34:41.593Z,99.99
2018-09-17T06:35:41.552Z,99.99
2018-09-17T06:36:41.518Z,99.99
2018-09-17T06:37:41.560Z,99.62
2018-09-17T06:38:41.453Z,99.80
2018-09-17T06:39:41.441Z,98.80
2018-09-17T06:40:41.384Z,97.94
2018-09-17T06:41:41.414Z,97.47
2018-09-17T06:42:41.316Z,96.32
2018-09-17T06:43:41.288Z,96.03
2018-09-17T06:44:41.273Z,95.12
2018-09-17T06:45:41.218Z,92.83
2018-09-17T06:46:41.182Z,92.35
2018-09-17T06:47:41.186Z,92.35
2018-09-17T06:48:41.123Z,91.16
2018-09-17T06:49:41.083Z,88.95
2018-09-17T06:50:41.051Z,88.29
2018-09-17T06:51:41.027Z,87.81
2018-09-17T06:52:40.998Z,87.27
2018-09-17T06:53:40.963Z,86.22
2018-09-17T06:54:40.920Z,85.94
2018-09-17T06:55:40.929Z,85.02
2018-09-17T06:56:40.866Z,84.16
2018-09-17T06:57:40.824Z,83.97
2018-09-17T06:58:40.793Z,83.25
2018-09-17T06:59:40.765Z,82.86
2018-09-17T07:00:40.726Z,82.09
2018-09-17T07:01:40.695Z,81.62
2018-09-17T07:02:40.667Z,81.62
2018-09-17T07:03:40.631Z,81.43
2018-09-17T07:04:40.601Z,81.18
2018-09-17T07:05:40.569Z,81.56
2018-09-17T07:06:40.544Z,79.26
2018-09-17T07:07:40.507Z,77.86
2018-09-17T07:08:40.520Z,77.48
2018-09-17T07:09:40.445Z,77.29
2018-09-17T07:10:40.435Z,76.32
2018-09-17T07:11:40.382Z,74.93
2018-09-17T07:12:40.351Z,75.70
2018-09-17T07:13:40.321Z,75.70
2018-09-17T07:14:40.293Z,75.79
2018-09-17T07:15:40.261Z,74.73
2018-09-17T07:16:40.230Z,75.89
2018-09-17T07:17:40.203Z,75.40
2018-09-17T07:18:40.172Z,75.31
2018-09-17T07:19:40.146Z,74.83
2018-09-17T07:20:40.112Z,74.01
2018-09-17T07:21:40.084Z,74.58
2018-09-17T07:22:40.059Z,73.33
2018-09-17T07:23:40.104Z,72.75
2018-09-17T07:24:39.997Z,72.47
2018-09-17T07:25:39.966Z,72.69
2018-09-17T07:26:39.932Z,72.99
2018-09-17T07:27:39.905Z,72.02
2018-09-17T07:28:39.873Z,71.64
2018-09-17T07:29:39.846Z,70.97
2018-09-17T07:30:39.817Z,71.10
2018-09-17T07:31:39.803Z,71.67
2018-09-17T07:32:39.792Z,71.10
2018-09-17T07:33:39.734Z,70.07
2018-09-17T07:34:39.707Z,68.73
2018-09-17T07:35:39.672Z,68.15
2018-09-17T07:36:39.697Z,67.77
2018-09-17T07:37:39.616Z,68.57
2018-09-17T07:38:40.058Z,67.93
2018-09-17T07:39:39.577Z,66.88
2018-09-17T07:40:39.560Z,67.07
2018-09-17T07:41:39.503Z,65.63
2018-09-17T07:42:39.498Z,65.72
2018-09-17T07:43:39.445Z,64.98
2018-09-17T07:44:39.423Z,66.17
2018-09-17T07:45:39.391Z,64.63
2018-09-17T07:46:39.366Z,63.57
2018-09-17T07:47:39.336Z,62.51
2018-09-17T07:48:39.307Z,62.83
2018-09-17T07:49:39.284Z,62.25
2018-09-17T07:50:39.258Z,61.68
2018-09-17T07:51:39.226Z,61.77
2018-09-17T07:52:39.219Z,61.13
2018-09-17T07:53:39.179Z,60.74
2018-09-17T07:54:39.145Z,59.87
2018-09-17T07:55:39.116Z,59.32
2018-09-17T07:56:39.094Z,60.68
2018-09-17T07:57:39.065Z,59.23
2018-09-17T07:58:39.037Z,58.94
2018-09-17T07:59:39.008Z,58.84
2018-09-17T08:00:38.984Z,58.94
2018-09-17T08:01:38.962Z,58.94
2018-09-17T08:02:38.933Z,58.65
2018-09-17T08:03:38.901Z,58.68
2018-09-17T08:04:38.900Z,57.84
2018-09-17T08:05:38.921Z,57.26
2018-09-17T08:06:38.823Z,55.90
2018-09-17T08:07:38.795Z,55.35
2018-09-17T08:08:38.767Z,55.07
2018-09-17T08:09:38.742Z,54.03
2018-09-17T08:10:38.718Z,53.74
2018-09-17T08:11:38.694Z,52.70
2018-09-17T08:12:38.670Z,53.28
2018-09-17T08:13:38.638Z,53.02
2018-09-17T08:14:38.638Z,52.53
2018-09-17T08:15:38.592Z,51.18
2018-09-17T08:16:38.561Z,52.05
2018-09-17T08:17:38.537Z,51.10
2018-09-17T08:18:38.511Z,50.14
2018-09-17T08:19:38.542Z,50.24
2018-09-17T08:20:38.459Z,50.72
2018-09-17T08:21:38.452Z,50.04
2018-09-17T08:22:38.409Z,49.07
2018-09-17T08:23:38.390Z,49.07
2018-09-17T08:24:38.433Z,49.65
2018-09-17T08:25:38.358Z,49.68
2018-09-17T08:26:38.336Z,49.00
2018-09-17T08:27:38.280Z,49.00
2018-09-17T08:28:38.256Z,47.96
2018-09-17T08:29:38.235Z,46.92
2018-09-17T08:30:38.318Z,47.11
2018-09-17T08:31:38.190Z,46.36
2018-09-17T08:32:38.181Z,46.45
2018-09-17T08:33:38.138Z,46.77
2018-09-17T08:34:38.109Z,45.80
2018-09-17T08:35:38.090Z,44.64
2018-09-17T08:36:38.058Z,45.80
2018-09-17T08:37:38.033Z,45.82
2018-09-17T08:38:38.009Z,45.72
2018-09-17T08:39:37.990Z,44.78
2018-09-17T08:40:37.975Z,43.90
2018-09-17T08:41:37.939Z,44.68
2018-09-17T08:42:37.909Z,43.90
2018-09-17T08:43:37.886Z,44.12
2018-09-17T08:44:37.875Z,44.41
2018-09-17T08:45:37.900Z,43.24
2018-09-17T08:46:37.843Z,43.24
2018-09-17T08:47:37.800Z,43.63
2018-09-17T08:48:37.764Z,43.05
2018-09-17T08:49:37.740Z,42.95
2018-09-17T08:50:37.713Z,41.49
2018-09-17T08:51:37.692Z,41.88
2018-09-17T08:52:37.714Z,42.39
2018-09-17T08:53:37.664Z,41.39
2018-09-17T08:54:37.622Z,42.27
2018-09-17T08:55:37.610Z,41.98
2018-09-17T08:56:37.569Z,41.88
2018-09-17T08:57:37.545Z,41.32
2018-09-17T08:58:37.518Z,40.83
2018-09-17T08:59:37.498Z,41.22
2018-09-17T09:00:37.471Z,41.32
2018-09-17T09:01:37.453Z,41.51
2018-09-17T09:02:37.486Z,40.64
2018-09-17T09:03:37.401Z,41.22
2018-09-17T09:04:37.375Z,40.95
2018-09-17T09:05:37.352Z,40.27
2018-09-17T09:06:37.334Z,40.56
2018-09-17T09:07:37.304Z,39.59
2018-09-17T09:08:37.278Z,38.81
2018-09-17T09:09:37.262Z,39.59
2018-09-17T09:10:37.237Z,39.70
2018-09-17T09:11:37.200Z,38.24
2018-09-17T09:12:37.178Z,38.34
2018-09-17T09:13:37.155Z,37.97
2018-09-17T09:14:37.140Z,37.19
2018-09-17T09:15:37.107Z,37.21
2018-09-17T09:16:37.082Z,37.02
2018-09-17T09:17:37.058Z,37.04
2018-09-17T09:18:37.037Z,35.55
2018-09-17T09:19:37.029Z,36.61
2018-09-17T09:20:36.984Z,36.82
2018-09-17T09:21:36.964Z,37.41
2018-09-17T09:22:36.973Z,36.53
2018-09-17T09:23:36.946Z,36.94
2018-09-17T09:24:36.886Z,36.35
2018-09-17T09:25:36.879Z,35.28
2018-09-17T09:26:36.852Z,35.38
2018-09-17T09:27:36.817Z,35.85
2018-09-17T09:28:36.791Z,36.53
2018-09-17T09:29:36.773Z,37.33
2018-09-17T09:30:36.767Z,37.79
2018-09-17T09:31:36.726Z,37.29
2018-09-17T09:32:36.700Z,37.02
2018-09-17T09:33:36.670Z,37.12
2018-09-17T09:34:36.654Z,36.33
2018-09-17T09:35:36.629Z,35.96
2018-09-17T09:36:36.609Z,35.57
2018-09-17T09:37:36.600Z,35.69
2018-09-17T09:38:36.599Z,35.22
2018-09-17T09:39:36.547Z,35.31
2018-09-17T09:40:36.507Z,33.75
2018-09-17T09:41:36.483Z,34.28
2018-09-17T09:42:36.457Z,33.26
2018-09-17T09:43:36.618Z,34.92
2018-09-17T09:44:36.417Z,34.75
2018-09-17T09:45:36.399Z,33.40
2018-09-17T09:46:36.367Z,33.09
2018-09-17T09:47:36.343Z,33.69
2018-09-17T09:48:36.322Z,33.98
2018-09-17T09:49:36.296Z,34.39
2018-09-17T09:50:36.269Z,32.56
2018-09-17T09:51:36.252Z,31.68
2018-09-17T09:52:36.256Z,31.10
2018-09-17T09:53:36.200Z,31.59
2018-09-17T09:54:36.185Z,31.57
2018-09-17T09:55:36.169Z,32.27
2018-09-17T09:56:36.134Z,30.90
2018-09-17T09:57:36.151Z,31.42
2018-09-17T09:58:36.114Z,29.74
2018-09-17T09:59:36.128Z,30.02
2018-09-17T10:00:36.040Z,31.31
2018-09-17T10:01:36.018Z,30.75
2018-09-17T10:02:35.994Z,28.79
2018-09-17T10:03:35.966Z,27.44
2018-09-17T10:04:35.952Z,27.73
2018-09-17T10:05:35.929Z,28.50
2018-09-17T10:06:35.907Z,27.44
2018-09-17T10:07:35.877Z,27.84
2018-09-17T10:08:35.855Z,28.03
2018-09-17T10:09:35.834Z,27.64
2018-09-17T10:10:35.811Z,28.54
2018-09-17T10:11:35.855Z,27.84
2018-09-17T10:12:35.772Z,27.64
2018-09-17T10:13:35.752Z,26.68
2018-09-17T10:14:35.745Z,26.28
2018-09-17T10:15:35.695Z,26.50
2018-09-17T10:16:35.676Z,25.90
2018-09-17T10:17:35.675Z,25.82
2018-09-17T10:18:35.634Z,26.69
2018-09-17T10:19:35.609Z,27.46
2018-09-17T10:20:35.586Z,27.08
2018-09-17T10:21:35.564Z,25.74
2018-09-17T10:22:35.543Z,24.86
2018-09-17T10:23:35.536Z,24.66
2018-09-17T10:24:35.522Z,24.97
2018-09-17T10:25:35.483Z,24.48
2018-09-17T10:26:35.479Z,23.50
2018-09-17T10:27:35.443Z,23.21
2018-09-17T10:28:36.144Z,24.12
2018-09-17T10:29:35.423Z,22.74
2018-09-17T10:30:35.377Z,22.56
2018-09-17T10:31:35.357Z,23.72
2018-09-17T10:32:35.323Z,23.20
2018-09-17T10:33:35.308Z,24.17
2018-09-17T10:34:35.285Z,24.86
2018-09-17T10:35:35.298Z,23.50
2018-09-17T10:36:35.240Z,23.80
2018-09-17T10:37:35.221Z,23.13
2018-09-17T10:38:35.200Z,22.95
2018-09-17T10:39:35.229Z,22.94
2018-09-17T10:40:35.158Z,22.94
2018-09-17T10:41:35.140Z,22.84
2018-09-17T10:42:35.118Z,23.62
2018-09-17T10:43:35.094Z,21.95
2018-09-17T10:44:35.080Z,21.98
2018-09-17T10:45:35.048Z,22.75
2018-09-17T10:46:35.029Z,22.16
2018-09-17T10:47:35.010Z,22.05
2018-09-17T10:48:34.984Z,23.30
2018-09-17T10:49:34.976Z,23.77
2018-09-17T10:50:34.952Z,24.75
2018-09-17T10:51:34.925Z,25.15
2018-09-17T10:52:34.902Z,24.86
2018-09-17T10:53:34.894Z,23.09
2018-09-17T10:54:35.003Z,22.71
2018-09-17T10:55:34.907Z,22.39
2018-09-17T10:56:34.816Z,22.89
2018-09-17T10:57:34.791Z,23.10
2018-09-17T10:58:34.778Z,23.40
2018-09-17T10:59:34.757Z,22.50
2018-09-17T11:00:34.752Z,22.50
2018-09-17T11:01:34.706Z,23.32
2018-09-17T11:02:34.679Z,22.96
2018-09-17T11:03:34.683Z,21.11
2018-09-17T11:04:34.667Z,19.74
2018-09-17T11:05:34.613Z,19.67
2018-09-17T11:06:34.595Z,18.59
2018-09-17T11:07:34.573Z,18.98
2018-09-17T11:08:34.550Z,18.99
2018-09-17T11:09:34.530Z,18.58
2018-09-17T11:10:34.509Z,19.15
2018-09-17T11:11:34.534Z,19.34
2018-09-17T11:12:34.467Z,18.35
2018-09-17T11:13:34.454Z,18.94
2018-09-17T11:14:34.427Z,19.23
2018-09-17T11:15:34.429Z,19.23
2018-09-17T11:16:34.390Z,19.04
2018-09-17T11:17:34.371Z,19.06
2018-09-17T11:18:34.340Z,19.26
2018-09-17T11:19:34.318Z,19.17
2018-09-17T11:20:34.303Z,18.29
2018-09-17T11:21:34.279Z,17.91
2018-09-17T11:22:34.257Z,18.31
2018-09-17T11:23:34.263Z,17.40
2018-09-17T11:24:34.243Z,18.29
2018-09-17T11:25:34.200Z,18.10
2018-09-17T11:26:34.181Z,16.71
2018-09-17T11:27:34.162Z,18.48
2018-09-17T11:28:34.142Z,18.78
2018-09-17T11:29:34.128Z,17.90
2018-09-17T11:30:34.109Z,16.92
2018-09-17T11:31:34.089Z,16.93
2018-09-17T11:32:34.055Z,16.63
2018-09-17T11:33:34.045Z,17.04
2018-09-17T11:34:34.024Z,18.01
2018-09-17T11:35:34.114Z,16.53
2018-09-17T11:36:33.981Z,16.88
2018-09-17T11:37:33.961Z,17.02
2018-09-17T11:38:33.939Z,16.85
2018-09-17T11:39:33.918Z,15.85
2018-09-17T11:40:33.903Z,15.68
2018-09-17T11:41:33.879Z,16.99
2018-09-17T11:42:33.867Z,15.70
2018-09-17T11:43:33.842Z,16.09
2018-09-17T11:44:33.822Z,16.11
2018-09-17T11:45:33.805Z,14.92
2018-09-17T11:46:33.783Z,14.51
2018-09-17T11:47:33.786Z,14.61
2018-09-17T11:48:33.756Z,14.20
2018-09-17T11:49:33.735Z,14.18
2018-09-17T11:50:33.738Z,14.29
2018-09-17T11:51:33.690Z,14.99
2018-09-17T11:52:33.673Z,14.30
2018-09-17T11:53:33.661Z,13.40
2018-09-17T11:54:33.642Z,14.09
2018-09-17T11:55:33.621Z,13.79
2018-09-17T11:56:33.615Z,15.67
2018-09-17T11:57:33.583Z,15.95
2018-09-17T11:58:33.564Z,15.55
2018-09-17T11:59:33.549Z,16.94
2018-09-17T12:00:33.533Z,15.87
2018-09-17T12:01:33.510Z,15.26
2018-09-17T12:02:33.495Z,15.63
2018-09-17T12:03:33.478Z,15.75
2018-09-17T12:04:33.459Z,15.67
2018-09-17T12:05:33.443Z,14.97
2018-09-17T12:06:33.424Z,14.79
2018-09-17T12:07:33.419Z,14.89
2018-09-17T12:08:33.377Z,14.19
2018-09-17T12:09:33.357Z,14.40
2018-09-17T12:10:33.342Z,14.39
2018-09-17T12:11:33.323Z,14.40
2018-09-17T12:12:33.305Z,14.20
2018-09-17T12:13:33.303Z,14.50
2018-09-17T12:14:33.270Z,14.19
2018-09-17T12:15:33.248Z,14.39
2018-09-17T12:16:33.230Z,14.79
2018-09-17T12:17:33.213Z,14.31
2018-09-17T12:18:33.196Z,14.81
2018-09-17T12:19:33.177Z,14.53
2018-09-17T12:20:33.160Z,13.93
2018-09-17T12:21:33.147Z,13.24
2018-09-17T12:22:33.120Z,14.53
2018-09-17T12:23:33.128Z,13.54
2018-09-17T12:24:33.088Z,12.35
2018-09-17T12:25:33.068Z,13.03
2018-09-17T12:26:33.051Z,14.93
2018-09-17T12:27:33.031Z,13.44
2018-09-17T12:28:33.046Z,12.82
2018-09-17T12:29:33.001Z,13.22
2018-09-17T12:30:32.978Z,14.40
2018-09-17T12:31:32.967Z,13.02
2018-09-17T12:32:32.980Z,13.22
2018-09-17T12:33:32.953Z,12.53
2018-09-17T12:34:32.907Z,14.41
2018-09-17T12:35:32.893Z,13.53
2018-09-17T12:36:32.878Z,13.54
2018-09-17T12:37:32.867Z,13.44
2018-09-17T12:38:32.842Z,12.63
2018-09-17T12:39:32.817Z,13.03
2018-09-17T12:40:32.799Z,13.21
2018-09-17T12:41:32.810Z,12.63
2018-09-17T12:42:32.770Z,12.95
2018-09-17T12:43:32.750Z,12.45
2018-09-17T12:44:32.731Z,13.03
2018-09-17T12:45:32.711Z,13.34
2018-09-17T12:46:32.699Z,12.04
2018-09-17T12:47:32.682Z,12.94
2018-09-17T12:48:32.665Z,12.84
2018-09-17T12:49:32.643Z,12.24
2018-09-17T12:50:32.635Z,11.66
2018-09-17T12:51:32.609Z,12.65
2018-09-17T12:52:32.592Z,13.13